createdAt,value
2018-12-21T17:45:57.406Z,20.98
2018-12-21T17:48:26.410Z,21.03
2018-12-21T17:50:55.423Z,21.07
2018-12-21T17:53:24.554Z,21.11
2018-12-21T17:55:53.629Z,21.20
2018-12-21T18:22:17.002Z,11.15
2018-12-21T18:24:51.094Z,10.87
2018-12-21T18:27:20.213Z,10.73
2018-12-21T18:29:51.459Z,10.57
2018-12-21T18:32:30.660Z,10.39
2018-12-21T18:35:04.096Z,10.27
2018-12-21T18:37:38.641Z,10.28
2018-12-21T18:40:09.247Z,10.17
2018-12-21T18:42:38.656Z,10.15
2018-12-21T18:45:07.951Z,10.23
2018-12-21T18:47:38.248Z,10.28
2018-12-21T18:50:07.545Z,10.24
2018-12-21T18:52:36.799Z,10.22
2018-12-21T18:55:09.836Z,10.28
2018-12-21T18:57:38.973Z,10.28
2018-12-21T19:00:11.631Z,10.41
2018-12-21T19:02:43.046Z,10.39
2018-12-21T19:05:12.203Z,10.36
2018-12-21T19:07:41.364Z,10.35
2018-12-21T19:10:11.895Z,10.34
2018-12-21T19:12:41.009Z,10.59
2018-12-21T19:15:11.430Z,10.53
2018-12-21T19:17:40.658Z,10.49
2018-12-21T19:20:11.951Z,10.30
2018-12-21T19:22:41.230Z,10.27
2018-12-21T19:25:11.473Z,10.26
2018-12-21T19:27:40.589Z,10.17
2018-12-21T19:30:11.434Z,10.28
2018-12-21T19:32:41.753Z,10.15
2018-12-21T19:35:12.285Z,10.18
2018-12-21T19:37:41.662Z,10.21
2018-12-21T19:40:11.830Z,10.05
2018-12-21T19:42:41.397Z,9.91
2018-12-21T19:45:12.641Z,9.84
2018-12-21T19:47:41.769Z,9.88
2018-12-21T19:50:11.376Z,9.96
2018-12-21T19:52:40.432Z,9.75
2018-12-21T19:55:20.579Z,9.80
2018-12-21T19:57:49.623Z,9.93
2018-12-21T20:00:18.773Z,9.82
2018-12-21T20:02:48.151Z,9.87
2018-12-21T20:05:17.289Z,9.75
2018-12-21T20:07:46.459Z,9.88
2018-12-21T20:10:15.530Z,9.80
2018-12-21T20:12:44.590Z,9.78
2018-12-21T20:15:13.784Z,9.85
2018-12-21T20:17:44.010Z,9.83
2018-12-21T20:20:13.277Z,9.82
2018-12-21T20:22:42.346Z,9.75
2018-12-21T20:25:13.190Z,9.67
2018-12-21T20:27:43.859Z,9.62
2018-12-21T20:30:16.613Z,9.71
2018-12-21T20:32:45.844Z,9.66
2018-12-21T20:35:15.059Z,9.64
2018-12-21T20:37:44.229Z,9.61
2018-12-21T20:40:13.480Z,9.63
2018-12-21T20:42:42.526Z,9.69
2018-12-21T20:45:12.593Z,9.84
2018-12-21T20:47:41.685Z,9.83
2018-12-21T20:50:14.762Z,9.93
2018-12-21T20:52:43.947Z,9.87
2018-12-21T20:55:13.178Z,9.89
2018-12-21T20:57:44.049Z,10.17
2018-12-21T21:00:15.159Z,9.90
2018-12-21T21:02:44.349Z,9.75
2018-12-21T21:05:13.399Z,9.69
2018-12-21T21:07:42.540Z,9.68
2018-12-21T21:10:12.754Z,9.62
2018-12-21T21:12:42.269Z,9.78
2018-12-21T21:15:13.059Z,9.84
2018-12-21T21:17:42.062Z,9.91
2018-12-21T21:20:14.284Z,9.70
2018-12-21T21:22:43.550Z,9.76
2018-12-21T21:25:12.596Z,9.84
2018-12-21T21:27:41.784Z,9.84
2018-12-21T21:30:16.633Z,9.82
2018-12-21T21:32:46.261Z,9.83
2018-12-21T21:35:15.492Z,9.96
2018-12-21T21:37:44.827Z,9.94
2018-12-21T21:40:16.953Z,9.90
2018-12-21T21:42:47.403Z,9.93
2018-12-21T21:45:16.856Z,9.68
2018-12-21T21:47:47.088Z,9.85
2018-12-21T21:50:16.270Z,9.67
2018-12-21T21:52:45.587Z,9.79
2018-12-21T21:55:15.793Z,9.95
2018-12-21T21:57:44.888Z,9.76
2018-12-21T22:00:14.686Z,9.75
2018-12-21T22:02:44.278Z,9.74
2018-12-21T22:05:13.358Z,9.62
2018-12-21T22:07:42.501Z,9.67
2018-12-21T22:10:11.808Z,9.74
2018-12-21T22:12:41.015Z,9.83
2018-12-21T22:15:10.949Z,9.77
2018-12-21T22:17:40.154Z,9.78
2018-12-21T22:20:11.656Z,9.66
2018-12-21T22:22:40.868Z,9.82
2018-12-21T22:25:10.118Z,9.85
2018-12-21T22:27:47.747Z,10.05
2018-12-21T22:30:11.823Z,10.09
2018-12-21T22:32:41.094Z,10.09
2018-12-21T22:35:11.349Z,9.95
2018-12-21T22:37:40.685Z,9.88
2018-12-21T22:40:09.832Z,10.00
2018-12-21T22:42:39.106Z,9.85
2018-12-21T22:45:08.553Z,9.98
2018-12-21T22:47:37.834Z,9.98
2018-12-21T22:50:09.405Z,10.05
2018-12-21T22:52:38.574Z,9.91
2018-12-21T22:55:09.047Z,9.87
2018-12-21T22:57:38.225Z,9.83
2018-12-21T23:00:16.575Z,9.97
2018-12-21T23:02:46.236Z,9.89
2018-12-21T23:05:15.504Z,9.99
2018-12-21T23:07:44.659Z,9.93
2018-12-21T23:10:14.065Z,9.97
2018-12-21T23:12:43.246Z,9.96
2018-12-21T23:15:12.578Z,9.81
2018-12-21T23:17:42.185Z,9.91
2018-12-21T23:20:11.309Z,9.76
2018-12-21T23:22:40.441Z,9.73
2018-12-21T23:25:09.874Z,9.81
2018-12-21T23:27:39.031Z,9.68
2018-12-21T23:30:10.364Z,9.59
2018-12-21T23:32:39.664Z,9.68
2018-12-21T23:35:08.985Z,9.81
2018-12-21T23:37:38.281Z,9.58
2018-12-21T23:40:08.514Z,9.58
2018-12-21T23:42:37.795Z,9.60
2018-12-21T23:45:07.656Z,9.42
2018-12-21T23:47:36.749Z,9.34
2018-12-21T23:50:06.697Z,9.33
2018-12-21T23:52:35.869Z,9.29
2018-12-21T23:55:06.438Z,9.23
2018-12-21T23:57:35.667Z,9.24
